Time;durP1;ratioP1;P1;durP2;ratioP2;P2;SDS_P1;SDS_P2;PMS_P1;PMS_P2;Temp;Humidity;BMP_temperature;BMP_pressure;BME280_temperature;BME280_humidity;BME280_pressure;Samples;Min_cycle;Max_cycle;Signal;HPM_P1;HPM_P2
2022/08/03 00:01:00;;;;;;;4.85;3.58;;;;;;;18.11;100.00;98458.00;1729298;79;28097;-86
2022/08/03 00:03:26;;;;;;;4.12;3.50;;;;;;;18.21;100.00;98461.91;1751284;80;28147;-85
2022/08/03 00:05:58;;;;;;;3.55;3.30;;;;;;;18.25;100.00;98464.58;1767384;79;28029;-85
2022/08/03 00:08:24;;;;;;;4.30;3.90;;;;;;;18.26;100.00;98466.24;1761434;79;28053;-84
2022/08/03 00:10:50;;;;;;;3.67;3.20;;;;;;;18.10;100.00;98470.92;1742869;79;28090;-85
2022/08/03 00:13:18;;;;;;;6.62;3.85;;;;;;;17.96;100.00;98468.80;1753940;79;28045;-86
2022/08/03 00:15:44;;;;;;;5.12;3.98;;;;;;;18.03;100.00;98470.36;1744014;80;28082;-88
2022/08/03 00:18:11;;;;;;;5.22;4.53;;;;;;;18.11;100.00;98468.59;1697493;82;28141;-88
2022/08/03 00:20:37;;;;;;;4.72;4.15;;;;;;;18.17;100.00;98463.17;1712905;81;28365;-88
2022/08/03 00:23:03;;;;;;;4.05;3.65;;;;;;;18.21;100.00;98460.58;1713963;82;43095;-88
2022/08/03 00:25:30;;;;;;;6.25;3.95;;;;;;;18.24;100.00;98465.06;1709177;81;28003;-89
2022/08/03 00:27:56;;;;;;;5.67;4.35;;;;;;;18.26;100.00;98459.63;1730634;81;28078;-88
2022/08/03 00:30:22;;;;;;;4.95;4.45;;;;;;;18.23;100.00;98459.42;1674902;83;28079;-88
2022/08/03 00:32:48;;;;;;;8.23;4.35;;;;;;;18.10;100.00;98462.98;1768512;78;28145;-85
2022/08/03 00:35:17;;;;;;;5.75;4.17;;;;;;;18.09;100.00;98459.98;1751511;78;28163;-86
2022/08/03 00:37:43;;;;;;;6.55;3.77;;;;;;;18.04;100.00;98454.81;1737900;79;28273;-86
2022/08/03 00:40:12;;;;;;;6.83;3.98;;;;;;;18.05;100.00;98455.99;1748556;80;28095;-85
2022/08/03 00:42:53;;;;;;;5.50;4.28;;;;;;;18.07;100.00;98450.03;1743860;80;28109;-86
2022/08/03 00:45:22;;;;;;;4.90;3.70;;;;;;;18.09;100.00;98454.69;1752810;78;28206;-86
2022/08/03 00:47:48;;;;;;;5.67;4.10;;;;;;;18.10;100.00;98455.53;1756136;79;28153;-84
2022/08/03 00:50:15;;;;;;;4.30;3.90;;;;;;;18.09;100.00;98456.50;1769489;79;28073;-88
2022/08/03 00:52:42;;;;;;;4.15;3.72;;;;;;;18.09;100.00;98453.86;1722009;80;28239;-88
2022/08/03 00:55:09;;;;;;;5.75;4.08;;;;;;;18.07;100.00;98454.48;1739888;79;28093;-88
2022/08/03 00:57:36;;;;;;;4.28;3.87;;;;;;;18.07;100.00;98455.81;1779922;79;28153;-88
2022/08/03 01:00:14;;;;;;;5.37;3.87;;;;;;;18.01;100.00;98457.26;1761499;79;28174;-88
2022/08/03 01:02:41;;;;;;;4.30;3.90;;;;;;;17.93;100.00;98457.20;1758004;80;28146;-88
2022/08/03 01:05:08;;;;;;;6.17;3.77;;;;;;;17.90;100.00;98455.69;1748085;79;28124;-88
2022/08/03 01:07:54;;;;;;;4.87;4.40;;;;;;;17.90;100.00;98453.52;1770818;80;28105;-88
2022/08/03 01:10:43;;;;;;;4.47;3.92;;;;;;;17.88;100.00;98458.16;1745957;79;28215;-88
2022/08/03 01:13:29;;;;;;;6.33;3.87;;;;;;;17.80;100.00;98460.72;1761323;78;28062;-87
2022/08/03 01:16:00;;;;;;;6.40;3.77;;;;;;;17.72;100.00;98459.34;1756498;79;28099;-87
2022/08/03 01:18:39;;;;;;;5.00;4.10;;;;;;;17.76;100.00;98469.47;1750558;80;28032;-87
2022/08/03 01:21:09;;;;;;;6.03;5.33;;;;;;;17.77;100.00;98462.36;1767105;78;28229;-87
2022/08/03 01:24:00;;;;;;;7.12;4.40;;;;;;;17.77;100.00;98463.69;1764249;79;28101;-87
2022/08/03 01:26:38;;;;;;;6.42;3.90;;;;;;;17.75;100.00;98461.67;1723759;80;28134;-87
2022/08/03 01:29:14;;;;;;;5.45;3.90;;;;;;;17.46;100.00;98464.00;1745344;79;28094;-87
2022/08/03 01:31:50;;;;;;;4.05;3.40;;;;;;;17.38;100.00;98465.73;1775517;79;28074;-87
2022/08/03 01:34:19;;;;;;;4.20;3.62;;;;;;;17.39;100.00;98463.44;1755518;79;28074;-87
2022/08/03 01:36:51;;;;;;;5.03;3.95;;;;;;;17.43;100.00;98470.09;1752731;79;28030;-87
2022/08/03 01:39:20;;;;;;;5.17;3.67;;;;;;;17.27;100.00;98465.45;1762978;79;28098;-86
2022/08/03 01:41:49;;;;;;;5.45;3.90;;;;;;;17.07;100.00;98457.30;1766853;80;28017;-86
2022/08/03 01:44:16;;;;;;;4.17;3.77;;;;;;;16.98;100.00;98458.16;1748229;79;28229;-86
2022/08/03 01:46:47;;;;;;;4.92;3.75;;;;;;;17.02;100.00;98462.20;1710110;81;28023;-86
2022/08/03 01:49:14;;;;;;;3.47;2.75;;;;;;;17.16;100.00;98461.69;1732044;80;28129;-85
2022/08/03 01:51:42;;;;;;;3.77;3.47;;;;;;;17.22;100.00;98458.95;1707625;82;28142;-89
2022/08/03 01:54:11;;;;;;;5.65;3.52;;;;;;;17.24;100.00;98457.80;1688352;83;28094;-86
2022/08/03 01:56:40;;;;;;;4.58;3.62;;;;;;;17.17;100.00;98457.23;1753799;80;28106;-87
2022/08/03 01:59:09;;;;;;;4.55;3.20;;;;;;;17.25;100.00;98458.15;1755368;80;28137;-85
2022/08/03 02:01:36;;;;;;;4.65;4.03;;;;;;;17.37;100.00;98462.26;1755093;80;28019;-86
2022/08/03 02:04:04;;;;;;;4.37;3.98;;;;;;;17.40;100.00;98454.02;1736909;80;28144;-88
2022/08/03 02:06:33;;;;;;;4.95;3.80;;;;;;;17.47;100.00;98452.92;1715204;82;28149;-88
2022/08/03 02:09:01;;;;;;;3.92;3.30;;;;;;;17.47;100.00;98451.12;1719575;81;28105;-88
2022/08/03 02:11:34;;;;;;;5.75;4.00;;;;;;;17.45;100.00;98445.65;1692237;83;28093;-89
2022/08/03 02:14:04;;;;;;;3.90;3.60;;;;;;;17.37;100.00;98447.70;1701441;83;28253;-88
2022/08/03 02:16:32;;;;;;;5.72;3.67;;;;;;;17.34;100.00;98443.22;1754557;79;28085;-86
2022/08/03 02:19:00;;;;;;;4.25;3.50;;;;;;;17.21;100.00;98447.53;1757413;79;28222;-85
2022/08/03 02:21:35;;;;;;;5.15;3.60;;;;;;;17.00;100.00;98458.37;1740618;80;28150;-87
2022/08/03 02:24:03;;;;;;;4.42;3.50;;;;;;;16.82;100.00;98450.86;1747165;80;28217;-87
2022/08/03 02:26:31;;;;;;;3.52;3.22;;;;;;;16.87;100.00;98438.03;1760761;79;28227;-86
2022/08/03 02:29:01;;;;;;;7.20;3.60;;;;;;;16.99;100.00;98443.97;1719891;80;28073;-86
2022/08/03 02:31:30;;;;;;;5.95;3.80;;;;;;;16.84;100.00;98448.91;1754440;79;28590;-87
2022/08/03 02:34:00;;;;;;;4.00;3.60;;;;;;;16.69;100.00;98451.70;1748983;78;28100;-86
2022/08/03 02:36:28;;;;;;;6.30;3.50;;;;;;;16.58;100.00;98445.23;1734648;80;28085;-87
2022/08/03 02:38:58;;;;;;;4.42;3.25;;;;;;;16.68;100.00;98447.38;1747307;79;28037;-90
2022/08/03 02:41:27;;;;;;;5.50;3.80;;;;;;;16.58;100.00;98454.48;1738394;80;28033;-90
2022/08/03 02:44:02;;;;;;;7.70;3.52;;;;;;;16.40;100.00;98455.71;1751344;79;28090;-87
2022/08/03 02:46:36;;;;;;;4.35;4.00;;;;;;;16.44;100.00;98465.01;1733079;81;28108;-87
2022/08/03 02:49:04;;;;;;;3.87;3.47;;;;;;;16.39;100.00;98461.13;1704384;80;28145;-86
2022/08/03 02:51:33;;;;;;;7.15;4.15;;;;;;;16.23;100.00;98458.59;1716960;82;28066;-86
2022/08/03 02:54:02;;;;;;;4.22;3.60;;;;;;;16.37;100.00;98457.30;1679453;82;28112;-89
2022/08/03 02:56:36;;;;;;;5.08;3.75;;;;;;;16.44;100.00;98458.89;1716398;81;28121;-89
2022/08/03 02:59:05;;;;;;;4.33;3.90;;;;;;;16.59;100.00;98460.13;1765376;80;28227;-86
2022/08/03 03:01:39;;;;;;;5.05;4.00;;;;;;;16.71;100.00;98458.48;1730951;81;28124;-86
2022/08/03 03:04:06;;;;;;;7.03;3.85;;;;;;;16.79;100.00;98461.73;1720152;82;28108;-86
2022/08/03 03:06:33;;;;;;;4.25;3.83;;;;;;;16.68;100.00;98469.84;1717786;81;28016;-87
2022/08/03 03:09:00;;;;;;;4.97;3.80;;;;;;;16.70;100.00;98467.39;1700803;82;28165;-86
2022/08/03 03:11:27;;;;;;;4.25;3.62;;;;;;;16.81;100.00;98462.89;1735160;80;28109;-87
2022/08/03 03:13:56;;;;;;;4.75;4.22;;;;;;;16.90;100.00;98472.61;1731312;80;28044;-86
2022/08/03 03:18:58;;;;;;;4.17;3.40;;;;;;;16.83;100.00;98471.03;1760951;79;28184;-85
2022/08/03 03:21:26;;;;;;;3.50;3.20;;;;;;;16.81;100.00;98465.53;1733927;80;28174;-89
2022/08/03 03:23:53;;;;;;;3.67;3.37;;;;;;;16.76;100.00;98467.30;1741737;80;28135;-86
2022/08/03 03:26:19;;;;;;;3.72;3.42;;;;;;;16.72;100.00;98471.22;1745937;79;28090;-86
2022/08/03 03:28:46;;;;;;;6.35;3.70;;;;;;;16.64;100.00;98469.28;1742230;80;28191;-86
2022/08/03 03:31:12;;;;;;;4.37;3.58;;;;;;;16.55;100.00;98468.80;1757518;80;28098;-86
2022/08/03 03:33:38;;;;;;;5.17;3.52;;;;;;;16.56;100.00;98474.92;1749616;79;28155;-87
2022/08/03 03:36:06;;;;;;;4.33;3.60;;;;;;;16.48;100.00;98473.47;1753863;79;28129;-89
2022/08/03 03:38:36;;;;;;;3.83;3.30;;;;;;;16.37;100.00;98473.63;1745300;80;28079;-86
2022/08/03 03:41:03;;;;;;;5.30;3.50;;;;;;;16.40;100.00;98477.33;1746522;79;28101;-87
2022/08/03 03:43:29;;;;;;;3.83;3.42;;;;;;;16.51;100.00;98471.39;1752472;80;28203;-87
2022/08/03 03:45:57;;;;;;;6.42;3.62;;;;;;;16.62;100.00;98464.65;1759804;80;27988;-87
2022/08/03 03:48:25;;;;;;;7.58;3.58;;;;;;;16.49;100.00;98462.77;1731159;80;28222;-87
2022/08/03 03:50:58;;;;;;;5.97;3.55;;;;;;;16.52;100.00;98480.16;1773749;79;28227;-89
2022/08/03 03:53:24;;;;;;;4.80;3.60;;;;;;;16.43;100.00;98479.19;1762978;79;28215;-88
2022/08/03 03:55:52;;;;;;;3.75;2.72;;;;;;;16.33;100.00;98479.22;1769909;79;28059;-86
2022/08/03 03:58:20;;;;;;;3.85;3.27;;;;;;;16.30;100.00;98480.83;1756452;79;28108;-85
2022/08/03 04:00:46;;;;;;;3.60;3.30;;;;;;;16.31;100.00;98479.83;1739213;80;28017;-88
2022/08/03 04:03:12;;;;;;;3.77;3.45;;;;;;;16.42;100.00;98480.67;1755297;80;28074;-88
2022/08/03 04:11:32;;;;;;;3.80;3.50;;;;;;;16.58;100.00;98495.44;1752932;80;28097;-86
2022/08/03 04:14:01;;;;;;;10.28;4.08;;;;;;;16.49;100.00;98497.59;1709655;82;28007;-85
2022/08/03 04:16:35;;;;;;;4.72;4.15;;;;;;;16.41;100.00;98502.77;1720083;82;28077;-86
2022/08/03 04:19:06;;;;;;;3.87;3.40;;;;;;;16.32;100.00;98496.03;1698928;81;28088;-86
2022/08/03 04:21:34;;;;;;;5.55;4.08;;;;;;;16.35;100.00;98494.09;1704601;82;28172;-87
2022/08/03 04:24:03;;;;;;;4.80;3.92;;;;;;;16.40;100.00;98495.81;1753279;80;28077;-86
2022/08/03 04:26:33;;;;;;;4.28;3.87;;;;;;;16.67;100.00;98499.41;1754021;80;28215;-88
2022/08/03 04:29:00;;;;;;;3.90;3.40;;;;;;;16.91;100.00;98486.18;1751668;79;28019;-89
2022/08/03 04:31:29;;;;;;;4.40;3.27;;;;;;;17.12;100.00;98495.55;1731215;80;28090;-88
2022/08/03 04:33:56;;;;;;;7.12;3.62;;;;;;;17.34;100.00;98492.16;1725574;81;28010;-86
2022/08/03 04:36:25;;;;;;;5.92;3.85;;;;;;;17.48;100.00;98500.41;1697831;82;28033;-85
2022/08/03 04:39:13;;;;;;;5.37;3.70;;;;;;;17.55;100.00;98498.84;1744262;80;28096;-88
2022/08/03 04:41:50;;;;;;;4.12;3.72;;;;;;;17.63;100.00;98499.92;1751717;80;28018;-88
2022/08/03 04:44:22;;;;;;;5.12;3.40;;;;;;;17.70;100.00;98499.67;1739690;79;28294;-86
2022/08/03 04:46:49;;;;;;;4.20;3.58;;;;;;;17.69;100.00;98504.63;1758849;80;28101;-87
2022/08/03 04:49:17;;;;;;;4.15;3.60;;;;;;;17.78;100.00;98505.87;1726490;80;28318;-87
2022/08/03 04:51:49;;;;;;;6.15;3.60;;;;;;;17.68;100.00;98506.44;1708107;81;28014;-85
2022/08/03 04:54:17;;;;;;;;;;;;;;;17.54;100.00;98508.25;1676115;83;28131;-86
2022/08/03 04:56:43;;;;;;;5.12;3.62;;;;;;;17.43;100.00;98511.94;1682747;82;24859;-86
2022/08/03 04:59:10;;;;;;;4.25;3.85;;;;;;;17.34;100.00;98507.55;1685622;83;28245;-88
2022/08/03 05:01:41;;;;;;;4.85;3.72;;;;;;;17.36;100.00;98508.70;1689450;83;28099;-89
2022/08/03 05:04:09;;;;;;;4.62;3.72;;;;;;;17.45;100.00;98507.34;1693733;82;28185;-86
2022/08/03 05:06:35;;;;;;;5.58;4.05;;;;;;;17.68;100.00;98507.75;1664096;82;28617;-86
2022/08/03 05:09:02;;;;;;;8.40;4.65;;;;;;;17.88;100.00;98513.77;1682769;83;28054;-86
2022/08/03 05:11:31;;;;;;;5.40;4.22;;;;;;;18.10;100.00;98511.14;1668145;83;28254;-85
2022/08/03 05:13:57;;;;;;;9.15;4.58;;;;;;;18.25;100.00;98507.80;1676529;83;28087;-86
2022/08/03 05:16:24;;;;;;;4.47;3.75;;;;;;;18.40;100.00;98509.39;1668518;83;28010;-86
2022/08/03 05:18:50;;;;;;;5.20;4.20;;;;;;;18.53;100.00;98507.18;1689677;82;28149;-86
2022/08/03 05:21:16;;;;;;;6.72;4.12;;;;;;;18.66;100.00;98513.41;1693873;83;43103;-86
2022/08/03 05:23:43;;;;;;;8.83;3.90;;;;;;;18.71;100.00;98506.65;1681052;83;28022;-85
2022/08/03 05:26:14;;;;;;;4.20;3.75;;;;;;;18.83;100.00;98515.17;1706212;81;28069;-86
2022/08/03 05:28:38;;;;;;;7.25;4.08;;;;;;;18.92;100.00;98508.11;1675367;82;28157;-86
2022/08/03 05:31:04;;;;;;;5.08;3.90;;;;;;;18.96;100.00;98506.30;1699185;82;28280;-85
2022/08/03 05:33:33;;;;;;;4.53;3.92;;;;;;;19.02;100.00;98504.84;1702326;82;28239;-89
2022/08/03 05:35:59;;;;;;;4.62;4.22;;;;;;;19.06;100.00;98504.85;1697988;82;28164;-89
2022/08/03 05:38:25;;;;;;;4.78;3.77;;;;;;;19.10;100.00;98508.35;1691965;81;43236;-90
2022/08/03 05:40:54;;;;;;;5.42;3.52;;;;;;;19.14;100.00;98506.23;1671801;82;28049;-89
2022/08/03 05:43:20;;;;;;;5.15;3.65;;;;;;;19.17;100.00;98512.53;1680875;82;28087;-87
2022/08/03 05:45:48;;;;;;;5.15;3.83;;;;;;;19.22;100.00;98508.41;1746283;80;28131;-89
2022/08/03 05:48:14;;;;;;;6.90;4.10;;;;;;;19.27;100.00;98509.75;1751256;78;28110;-88
2022/08/03 05:50:41;;;;;;;4.30;3.90;;;;;;;19.27;100.00;98509.75;1740733;80;28093;-88
2022/08/03 05:53:07;;;;;;;3.75;3.40;;;;;;;19.28;100.00;98508.27;1747964;80;28124;-89
2022/08/03 05:55:33;;;;;;;4.08;3.72;;;;;;;19.31;100.00;98507.94;1748852;80;28062;-88
2022/08/03 05:58:02;;;;;;;3.92;3.50;;;;;;;19.37;100.00;98511.77;1746598;80;28102;-89
2022/08/03 06:00:32;;;;;;;5.25;3.77;;;;;;;19.42;100.00;98507.64;1765667;79;28108;-89
2022/08/03 06:03:01;;;;;;;4.83;3.60;;;;;;;19.47;100.00;98512.03;1764840;80;28104;-86
2022/08/03 06:05:30;;;;;;;4.60;3.60;;;;;;;19.52;100.00;98509.72;1725185;80;28285;-89
2022/08/03 06:07:59;;;;;;;4.47;4.08;;;;;;;19.56;100.00;98515.03;1752815;80;32752;-85
2022/08/03 06:10:25;;;;;;;4.35;3.95;;;;;;;19.63;100.00;98509.42;1761698;80;28153;-85
2022/08/03 06:12:51;;;;;;;5.15;4.00;;;;;;;19.70;100.00;98510.91;1742650;80;28095;-86
2022/08/03 06:15:17;;;;;;;5.37;4.30;;;;;;;19.77;100.00;98512.42;1711932;81;28001;-87
2022/08/03 06:17:46;;;;;;;4.83;3.98;;;;;;;19.83;100.00;98517.09;1672833;83;28865;-86
2022/08/03 06:20:19;;;;;;;4.67;3.70;;;;;;;19.85;100.00;98517.27;1699736;82;28110;-87
2022/08/03 06:22:50;;;;;;;4.22;2.92;;;;;;;19.92;100.00;98521.41;1702306;81;28141;-87
2022/08/03 06:25:16;;;;;;;5.03;3.77;;;;;;;19.97;100.00;98527.05;1683805;83;28143;-87
2022/08/03 06:27:46;;;;;;;6.12;3.52;;;;;;;19.97;100.00;98524.40;1742494;80;28075;-87
2022/08/03 06:30:12;;;;;;;4.10;3.47;;;;;;;19.91;100.00;98531.72;1755362;80;28062;-88
2022/08/03 06:32:39;;;;;;;6.20;3.87;;;;;;;19.92;100.00;98528.05;1747042;80;28085;-88
2022/08/03 06:35:07;;;;;;;5.58;3.92;;;;;;;19.98;100.00;98528.72;1724120;81;28082;-88
2022/08/03 06:37:50;;;;;;;6.70;3.87;;;;;;;19.99;100.00;98529.89;1759012;79;28073;-88
2022/08/03 06:40:19;;;;;;;4.50;4.10;;;;;;;20.01;100.00;98536.38;1717257;80;28231;-88
2022/08/03 06:42:45;;;;;;;5.97;4.15;;;;;;;20.09;100.00;98539.03;1738655;80;28232;-88
2022/08/03 06:45:12;;;;;;;4.70;4.10;;;;;;;20.13;100.00;98540.36;1743866;80;28165;-87
2022/08/03 06:47:45;;;;;;;5.90;4.03;;;;;;;20.12;100.00;98537.89;1744455;80;28031;-87
2022/08/03 06:50:11;;;;;;;4.60;3.90;;;;;;;20.14;100.00;98536.71;1707106;82;28183;-87
2022/08/03 06:52:37;;;;;;;6.83;4.00;;;;;;;20.19;100.00;98542.86;1728917;81;28017;-91
2022/08/03 06:55:06;;;;;;;6.45;4.60;;;;;;;20.28;100.00;98541.39;1726173;81;27996;-89
2022/08/03 06:57:32;;;;;;;4.40;3.80;;;;;;;20.51;100.00;98545.55;1762968;80;28040;-85
2022/08/03 07:00:00;;;;;;;5.00;4.05;;;;;;;20.69;100.00;98548.87;1710551;80;28037;-85
2022/08/03 07:02:28;;;;;;;5.60;4.22;;;;;;;20.83;100.00;98540.72;1767872;79;28079;-88
2022/08/03 07:04:54;;;;;;;4.80;4.40;;;;;;;20.83;100.00;98538.05;1715437;81;28010;-86
2022/08/03 07:07:21;;;;;;;4.92;4.30;;;;;;;20.77;100.00;98538.23;1767708;80;27992;-86
2022/08/03 07:09:47;;;;;;;4.92;4.37;;;;;;;20.86;100.00;98539.03;1743038;80;28119;-86
2022/08/03 07:12:13;;;;;;;4.92;4.17;;;;;;;20.86;100.00;98544.35;1747531;79;28125;-86
2022/08/03 07:14:39;;;;;;;4.30;4.00;;;;;;;20.81;100.00;98542.20;1754664;78;28080;-86
2022/08/03 07:17:05;;;;;;;5.75;4.33;;;;;;;20.84;100.00;98540.52;1730021;79;28135;-86
2022/08/03 07:19:31;;;;;;;5.00;4.25;;;;;;;20.86;100.00;98535.88;1758891;79;28083;-85
2022/08/03 07:21:57;;;;;;;4.22;3.87;;;;;;;20.92;100.00;98544.17;1743253;80;28104;-86
2022/08/03 07:24:23;;;;;;;4.33;3.75;;;;;;;20.94;100.00;98540.36;1765007;78;28074;-89
2022/08/03 07:26:52;;;;;;;4.35;3.52;;;;;;;20.99;100.00;98536.69;1715457;80;28230;-88
2022/08/03 07:29:18;;;;;;;4.87;3.90;;;;;;;21.05;100.00;98540.00;1762505;80;28160;-88
2022/08/03 07:31:44;;;;;;;5.87;4.62;;;;;;;21.08;100.00;98537.48;1751779;78;43049;-89
2022/08/03 07:34:10;;;;;;;6.78;4.55;;;;;;;21.04;100.00;98537.50;1770442;79;28061;-86
2022/08/03 07:36:36;;;;;;;5.03;4.53;;;;;;;21.02;100.00;98536.33;1756645;79;28228;-86
2022/08/03 07:39:03;;;;;;;4.53;4.12;;;;;;;21.04;100.00;98537.00;1755879;79;28099;-86
2022/08/03 07:41:32;;;;;;;4.55;4.15;;;;;;;21.12;100.00;98533.47;1742083;79;28002;-86
2022/08/03 07:43:59;;;;;;;6.45;4.78;;;;;;;21.20;100.00;98534.82;1764472;79;28016;-86
2022/08/03 07:46:25;;;;;;;5.92;4.37;;;;;;;21.24;100.00;98534.30;1751151;79;28093;-86
2022/08/03 07:48:54;;;;;;;7.10;5.22;;;;;;;21.32;100.00;98533.95;1762351;80;28097;-86
2022/08/03 07:51:20;;;;;;;5.08;4.25;;;;;;;21.41;100.00;98534.23;1761543;80;28211;-86
2022/08/03 07:53:49;;;;;;;5.45;4.50;;;;;;;21.49;100.00;98537.67;1750833;79;28149;-86
2022/08/03 07:56:15;;;;;;;4.87;4.33;;;;;;;21.56;100.00;98531.16;1748597;79;28144;-86
2022/08/03 07:58:42;;;;;;;6.25;4.17;;;;;;;21.65;100.00;98536.30;1752833;79;28161;-89
2022/08/03 08:01:12;;;;;;;5.33;4.33;;;;;;;21.76;100.00;98532.91;1744910;80;28065;-86
2022/08/03 08:03:38;;;;;;;5.20;4.70;;;;;;;21.85;100.00;98534.50;1742442;80;28181;-86
2022/08/03 08:08:30;;;;;;;5.28;4.00;;;;;;;22.00;100.00;98532.27;1756769;79;28576;-86
2022/08/03 08:10:56;;;;;;;5.37;4.12;;;;;;;22.10;100.00;98526.20;1703099;81;28073;-86
2022/08/03 08:13:23;;;;;;;5.62;3.92;;;;;;;22.22;100.00;98532.45;1691638;82;28163;-86
2022/08/03 08:15:49;;;;;;;4.42;3.85;;;;;;;22.31;100.00;98532.73;1669051;83;28086;-86
2022/08/03 08:18:15;;;;;;;3.77;3.30;;;;;;;22.37;100.00;98530.15;1687612;82;28211;-86
2022/08/03 08:20:41;;;;;;;4.80;3.37;;;;;;;22.49;100.00;98539.89;1709516;81;28013;-86
2022/08/03 08:23:08;;;;;;;3.98;3.58;;;;;;;22.57;100.00;98533.67;1718330;80;28136;-86
2022/08/03 08:25:34;;;;;;;4.40;3.42;;;;;;;22.70;100.00;98532.02;1681952;83;28242;-87
2022/08/03 08:28:02;;;;;;;3.17;2.77;;;;;;;22.80;100.00;98538.48;1712775;82;28156;-87
2022/08/03 08:30:30;;;;;;;3.75;2.60;;;;;;;22.91;100.00;98536.17;1757252;80;28092;-86
2022/08/03 08:32:56;;;;;;;4.00;3.12;;;;;;;23.03;100.00;98537.06;1763244;80;28263;-86
2022/08/03 08:35:23;;;;;;;4.00;3.00;;;;;;;23.10;100.00;98531.31;1732945;80;28119;-86
2022/08/03 08:37:50;;;;;;;5.47;3.00;;;;;;;23.27;100.00;98529.61;1747872;80;28118;-88
2022/08/03 08:40:18;;;;;;;3.47;2.95;;;;;;;23.48;100.00;98527.55;1748647;80;28114;-86
2022/08/03 08:42:46;;;;;;;3.65;3.35;;;;;;;23.53;100.00;98527.81;1709148;82;28491;-86
2022/08/03 08:45:14;;;;;;;4.35;3.10;;;;;;;23.55;100.00;98536.48;1702343;82;28033;-86
2022/08/03 08:47:43;;;;;;;4.50;2.70;;;;;;;23.55;100.00;98532.98;1684329;82;28075;-85
2022/08/03 08:50:11;;;;;;;5.10;2.75;;;;;;;23.53;100.00;98531.82;1702062;82;28131;-89
2022/08/03 08:52:41;;;;;;;2.77;2.47;;;;;;;23.57;100.00;98522.91;1696763;82;28184;-89
2022/08/03 08:55:09;;;;;;;3.00;2.08;;;;;;;23.78;100.00;98526.99;1702773;81;28168;-89
2022/08/03 08:57:38;;;;;;;2.35;2.15;;;;;;;23.89;100.00;98525.67;1689897;82;28262;-88
2022/08/03 09:00:09;;;;;;;2.45;2.15;;;;;;;24.05;100.00;98524.09;1704666;82;28099;-88
2022/08/03 09:02:35;;;;;;;2.47;2.27;;;;;;;24.22;100.00;98530.05;1699140;82;28131;-86
2022/08/03 09:05:03;;;;;;;4.37;2.95;;;;;;;24.34;100.00;98536.52;1691004;82;28195;-87
2022/08/03 09:07:29;;;;;;;2.85;2.52;;;;;;;24.50;100.00;98533.06;1754310;79;28100;-87
2022/08/03 09:09:56;;;;;;;3.45;2.67;;;;;;;24.58;100.00;98534.28;1760432;79;28155;-86
2022/08/03 09:12:22;;;;;;;4.28;2.60;;;;;;;24.65;100.00;98535.67;1761409;79;28062;-86
2022/08/03 09:14:48;;;;;;;3.75;2.50;;;;;;;24.71;100.00;98532.20;1753229;79;28159;-87
2022/08/03 09:17:14;;;;;;;2.52;2.15;;;;;;;24.69;100.00;98531.58;1749529;80;28054;-89
2022/08/03 09:19:41;;;;;;;2.22;2.02;;;;;;;24.69;100.00;98531.58;1774140;78;28271;-86
2022/08/03 09:22:14;;;;;;;2.20;2.00;;;;;;;24.68;100.00;98530.43;1758190;80;28075;-89
2022/08/03 09:24:58;;;;;;;3.25;2.00;;;;;;;24.69;100.00;98532.09;1730399;80;28114;-86
2022/08/03 09:27:24;;;;;;;2.72;2.12;;;;;;;24.76;100.00;98528.96;1750757;79;28154;-89
2022/08/03 09:29:52;;;;;;;2.10;1.90;;;;;;;24.82;100.00;98529.52;1736652;79;28083;-86
2022/08/03 09:32:21;;;;;;;2.00;1.80;;;;;;;24.73;100.00;98523.47;1714632;81;28001;-89
2022/08/03 09:35:02;;;;;;;1.92;1.60;;;;;;;24.72;100.00;98525.00;1751539;78;28197;-86
2022/08/03 09:37:18;;;;;;;2.08;1.67;;;;;;;24.73;100.00;98522.13;1755459;78;28051;-87
2022/08/03 09:39:45;;;;;;;1.82;1.50;;;;;;;24.83;100.00;98528.47;1728139;80;28149;-86
2022/08/03 09:42:23;;;;;;;2.12;1.60;;;;;;;24.87;100.00;98525.23;1762638;78;28035;-87
2022/08/03 09:44:50;;;;;;;2.08;1.60;;;;;;;24.95;100.00;98522.93;1772682;79;28142;-87
2022/08/03 09:47:32;;;;;;;1.90;1.70;;;;;;;25.01;100.00;98520.81;1750939;79;28054;-89
2022/08/03 09:50:02;;;;;;;2.08;1.70;;;;;;;25.03;100.00;98525.47;1736754;79;28152;-86
2022/08/03 09:52:39;;;;;;;2.77;1.70;;;;;;;25.01;100.00;98524.83;1744041;80;28133;-86
2022/08/03 09:55:13;;;;;;;2.17;1.50;;;;;;;25.06;100.00;98525.06;1741309;79;28211;-88
2022/08/03 09:57:45;;;;;;;1.40;1.20;;;;;;;25.12;100.00;98524.28;1743909;79;28180;-89
2022/08/03 10:00:13;;;;;;;1.70;1.60;;;;;;;25.31;100.00;98514.16;1751031;79;28082;-89
2022/08/03 10:02:42;;;;;;;1.92;1.72;;;;;;;25.41;100.00;98516.50;1746702;79;28084;-87
2022/08/03 10:05:11;;;;;;;1.85;1.70;;;;;;;25.46;100.00;98515.90;1773856;79;28106;-89
2022/08/03 10:07:45;;;;;;;1.90;1.80;;;;;;;25.48;100.00;98514.66;1723195;81;28025;-87
2022/08/03 10:10:13;;;;;;;3.22;2.02;;;;;;;25.48;99.60;98511.14;1745973;80;28149;-86
2022/08/03 10:12:41;;;;;;;1.80;1.70;;;;;;;25.65;99.02;98511.97;1751141;80;28063;-87
2022/08/03 10:15:09;;;;;;;1.37;1.27;;;;;;;25.69;97.79;98504.38;1750259;79;28259;-86
2022/08/03 10:17:36;;;;;;;1.37;1.27;;;;;;;25.76;96.75;98510.05;1761484;79;28144;-86
2022/08/03 10:20:05;;;;;;;1.40;1.30;;;;;;;25.70;95.09;98501.98;1753153;79;28105;-86
2022/08/03 10:22:34;;;;;;;1.92;1.40;;;;;;;25.70;93.73;98504.66;1738798;79;28118;-86
2022/08/03 10:25:10;;;;;;;2.20;1.42;;;;;;;25.68;92.41;98500.87;1748235;79;27998;-87
2022/08/03 10:27:39;;;;;;;1.70;1.60;;;;;;;25.68;91.19;98498.19;1761277;79;28163;-89
2022/08/03 10:30:09;;;;;;;1.70;1.50;;;;;;;25.74;90.42;98496.55;1752551;80;28115;-86
2022/08/03 10:32:41;;;;;;;1.50;1.40;;;;;;;25.75;89.65;98500.86;1750932;79;27991;-85
2022/08/03 10:35:14;;;;;;;3.22;1.75;;;;;;;25.75;88.68;98495.50;1767926;79;28121;-85
2022/08/03 10:37:43;;;;;;;2.05;1.67;;;;;;;25.83;88.38;98498.84;1748685;79;28211;-86
2022/08/03 10:40:13;;;;;;;1.60;1.50;;;;;;;25.90;87.73;98497.52;1763543;79;28243;-84
2022/08/03 10:42:43;;;;;;;1.25;1.15;;;;;;;26.02;87.39;98493.73;1754193;80;28234;-89
2022/08/03 10:45:15;;;;;;;1.72;1.62;;;;;;;26.03;86.31;98502.89;1754392;78;28289;-85
2022/08/03 10:47:42;;;;;;;1.75;1.62;;;;;;;26.08;85.48;98500.94;1764069;79;28159;-85
2022/08/03 10:50:10;;;;;;;1.55;1.45;;;;;;;26.11;84.73;98496.01;1750713;80;28490;-85
2022/08/03 10:52:56;;;;;;;2.20;2.00;;;;;;;26.18;84.09;98496.81;1764259;79;28575;-85
2022/08/03 10:58:52;;;;;;;2.47;1.97;;;;;;;26.44;83.36;98489.86;1684132;83;28167;-88
2022/08/03 11:01:21;;;;;;;1.62;1.52;;;;;;;26.57;82.87;98485.81;1698588;81;28168;-85
2022/08/03 11:03:57;;;;;;;1.98;1.77;;;;;;;26.57;82.04;98486.64;1764788;79;28136;-85
2022/08/03 11:06:25;;;;;;;1.75;1.42;;;;;;;26.56;81.51;98489.56;1752731;79;28122;-86
2022/08/03 11:09:13;;;;;;;2.20;1.80;;;;;;;26.45;80.27;98483.47;1758833;79;28215;-85
2022/08/03 11:11:42;;;;;;;1.40;1.30;;;;;;;26.32;78.71;98484.80;1725578;80;28130;-85
2022/08/03 11:14:15;;;;;;;1.20;1.10;;;;;;;26.31;77.12;98489.34;1686888;83;28010;-88
2022/08/03 11:16:51;;;;;;;1.82;1.25;;;;;;;26.33;75.85;98485.94;1688548;83;28014;-84
2022/08/03 11:19:23;;;;;;;3.22;1.35;;;;;;;26.37;74.42;98478.30;1689553;82;28152;-85
2022/08/03 11:21:53;;;;;;;2.83;1.22;;;;;;;26.46;73.51;98477.88;1697385;82;28094;-88
2022/08/03 11:24:45;;;;;;;1.50;1.02;;;;;;;26.56;72.90;98478.82;1705838;82;28113;-88
2022/08/03 11:27:18;;;;;;;1.30;1.20;;;;;;;26.62;72.62;98469.39;1683116;83;28171;-85
2022/08/03 11:30:09;;;;;;;1.47;1.37;;;;;;;26.83;72.51;98471.03;1697068;82;28025;-85
2022/08/03 11:32:42;;;;;;;1.20;1.10;;;;;;;26.78;70.88;98468.16;1700924;82;28107;-88
2022/08/03 11:35:17;;;;;;;1.30;1.20;;;;;;;26.73;69.83;98467.92;1742089;78;28136;-88
2022/08/03 11:38:01;;;;;;;1.25;1.02;;;;;;;26.73;68.83;98469.81;1750689;80;28274;-86
2022/08/03 11:40:51;;;;;;;2.62;1.25;;;;;;;26.61;66.98;98470.97;1751384;79;28090;-86
2022/08/03 11:43:33;;;;;;;1.70;1.40;;;;;;;26.61;66.01;98473.65;1745345;79;28029;-89
2022/08/03 11:46:03;;;;;;;1.35;1.22;;;;;;;26.70;65.77;98467.53;1748883;79;28234;-86
2022/08/03 11:48:43;;;;;;;1.67;1.40;;;;;;;26.90;65.93;98461.11;1755441;79;28118;-86
2022/08/03 11:51:28;;;;;;;1.20;1.10;;;;;;;27.06;65.83;98459.83;1745812;80;28025;-86